Aviation Digital Data Service (ADDS)

Output produced by METARs form (0015 UTC 19 April 2014)
found at http://www.aviationweather.gov/adds/metars/
 
SEGU 190000Z 21008KT 9999 SCT023 BKN100 28/21 Q1007 RMK A2976 NOSIG
SEGU 182230Z 1900/1924 20005KT 9999 BKN020 BKN090 
     TEMPO 1901/1904 800 0 RA 
     FM190600 23005KT 9999 FEW010 BKN020 BKN080 
     FM191200 2000 4KT 9999 BKN020 BKN100 
     FM191800 06005KT 9999 SCT030 SCT120 TX32/1920Z TN25/19/1 0Z
       
SEMT 190000Z 19011KT 9999 FEW030 26/22 Q1009
SEMT 182230Z 1900/1924 20006KT 9999 BKN023 
     FM191300 21010KT 9999 BKN0 20 
     FM191700 30010KT 9999 SCT023 SCT100 TX29/1919Z TN23/1910Z